sensor_id;sensor_type;location;lat;lon;timestamp;temperature;humidity
26262;DHT22;13988;52.446;13.280;2023-03-30T00:01:22;8.70;99.90
26262;DHT22;13988;52.446;13.280;2023-03-30T00:03:48;8.70;99.90
26262;DHT22;13988;52.446;13.280;2023-03-30T00:06:15;8.70;99.90
26262;DHT22;13988;52.446;13.280;2023-03-30T00:08:48;8.70;99.90
26262;DHT22;13988;52.446;13.280;2023-03-30T00:11:14;8.70;99.90
26262;DHT22;13988;52.446;13.280;2023-03-30T00:13:42;8.70;99.90
26262;DHT22;13988;52.446;13.280;2023-03-30T00:16:10;8.70;99.90
26262;DHT22;13988;52.446;13.280;2023-03-30T00:18:37;8.70;99.90
26262;DHT22;13988;52.446;13.280;2023-03-30T00:21:04;8.70;99.90
26262;DHT22;13988;52.446;13.280;2023-03-30T00:23:30;8.70;99.90
26262;DHT22;13988;52.446;13.280;2023-03-30T00:25:56;8.70;99.90
26262;DHT22;13988;52.446;13.280;2023-03-30T00:28:23;8.60;99.90
26262;DHT22;13988;52.446;13.280;2023-03-30T00:30:51;8.60;99.90
26262;DHT22;13988;52.446;13.280;2023-03-30T00:33:18;8.60;99.90
26262;DHT22;13988;52.446;13.280;2023-03-30T00:35:54;8.60;99.90
26262;DHT22;13988;52.446;13.280;2023-03-30T00:38:21;8.60;99.90
26262;DHT22;13988;52.446;13.280;2023-03-30T00:40:55;8.60;99.90
26262;DHT22;13988;52.446;13.280;2023-03-30T00:43:22;8.60;99.90
26262;DHT22;13988;52.446;13.280;2023-03-30T00:45:47;8.60;99.90
26262;DHT22;13988;52.446;13.280;2023-03-30T00:48:23;8.50;99.90
26262;DHT22;13988;52.446;13.280;2023-03-30T00:50:52;8.50;99.90
26262;DHT22;13988;52.446;13.280;2023-03-30T00:53:26;8.60;99.90
26262;DHT22;13988;52.446;13.280;2023-03-30T00:55:53;8.60;99.90
26262;DHT22;13988;52.446;13.280;2023-03-30T00:58:21;8.50;99.90
26262;DHT22;13988;52.446;13.280;2023-03-30T01:00:47;8.40;99.90
26262;DHT22;13988;52.446;13.280;2023-03-30T01:03:40;8.30;99.90
26262;DHT22;13988;52.446;13.280;2023-03-30T01:06:09;8.30;99.90
26262;DHT22;13988;52.446;13.280;2023-03-30T01:08:35;8.20;99.90
26262;DHT22;13988;52.446;13.280;2023-03-30T01:11:04;8.30;99.90
26262;DHT22;13988;52.446;13.280;2023-03-30T01:13:40;8.30;99.90
26262;DHT22;13988;52.446;13.280;2023-03-30T01:16:34;8.30;99.90
26262;DHT22;13988;52.446;13.280;2023-03-30T01:28:06;8.40;99.90
26262;DHT22;13988;52.446;13.280;2023-03-30T01:41:44;8.40;99.90
26262;DHT22;13988;52.446;13.280;2023-03-30T01:50:07;8.30;99.90
26262;DHT22;13988;52.446;13.280;2023-03-30T01:52:59;8.30;99.90
26262;DHT22;13988;52.446;13.280;2023-03-30T01:55:35;8.40;99.90
26262;DHT22;13988;52.446;13.280;2023-03-30T01:58:09;8.40;99.90
26262;DHT22;13988;52.446;13.280;2023-03-30T02:00:36;8.40;99.90
26262;DHT22;13988;52.446;13.280;2023-03-30T02:03:13;8.40;99.90
26262;DHT22;13988;52.446;13.280;2023-03-30T02:05:42;8.50;99.90
26262;DHT22;13988;52.446;13.280;2023-03-30T02:08:12;8.40;99.90
26262;DHT22;13988;52.446;13.280;2023-03-30T02:10:41;8.40;99.90
26262;DHT22;13988;52.446;13.280;2023-03-30T02:13:08;8.40;99.90
26262;DHT22;13988;52.446;13.280;2023-03-30T02:15:39;8.40;99.90
26262;DHT22;13988;52.446;13.280;2023-03-30T02:18:05;8.40;99.90
26262;DHT22;13988;52.446;13.280;2023-03-30T02:20:32;8.40;99.90
26262;DHT22;13988;52.446;13.280;2023-03-30T02:22:59;8.40;99.90
26262;DHT22;13988;52.446;13.280;2023-03-30T02:25:25;8.40;99.90
26262;DHT22;13988;52.446;13.280;2023-03-30T02:27:52;8.40;99.90
26262;DHT22;13988;52.446;13.280;2023-03-30T02:30:18;8.40;99.90
26262;DHT22;13988;52.446;13.280;2023-03-30T02:32:47;8.40;99.90
26262;DHT22;13988;52.446;13.280;2023-03-30T02:35:36;8.50;99.90
26262;DHT22;13988;52.446;13.280;2023-03-30T02:38:19;8.50;99.90
26262;DHT22;13988;52.446;13.280;2023-03-30T02:40:58;8.50;99.90
26262;DHT22;13988;52.446;13.280;2023-03-30T02:51:31;8.40;99.90
26262;DHT22;13988;52.446;13.280;2023-03-30T02:57:13;8.50;99.90
26262;DHT22;13988;52.446;13.280;2023-03-30T03:00:02;8.50;99.90
26262;DHT22;13988;52.446;13.280;2023-03-30T03:02:41;8.60;99.90
26262;DHT22;13988;52.446;13.280;2023-03-30T03:05:10;8.60;99.90
26262;DHT22;13988;52.446;13.280;2023-03-30T03:07:37;8.60;99.90
26262;DHT22;13988;52.446;13.280;2023-03-30T03:10:04;8.60;99.90
26262;DHT22;13988;52.446;13.280;2023-03-30T03:12:31;8.60;99.90
26262;DHT22;13988;52.446;13.280;2023-03-30T03:14:57;8.60;99.90
26262;DHT22;13988;52.446;13.280;2023-03-30T03:17:23;8.60;99.90
26262;DHT22;13988;52.446;13.280;2023-03-30T03:19:49;8.60;99.90
26262;DHT22;13988;52.446;13.280;2023-03-30T03:22:15;8.60;99.90
26262;DHT22;13988;52.446;13.280;2023-03-30T03:24:40;8.60;99.90
26262;DHT22;13988;52.446;13.280;2023-03-30T03:27:06;8.60;99.90
26262;DHT22;13988;52.446;13.280;2023-03-30T03:29:33;8.60;99.90
26262;DHT22;13988;52.446;13.280;2023-03-30T03:31:59;8.60;99.90
26262;DHT22;13988;52.446;13.280;2023-03-30T03:34:25;8.60;99.90
26262;DHT22;13988;52.446;13.280;2023-03-30T03:36:53;8.60;99.90
26262;DHT22;13988;52.446;13.280;2023-03-30T03:39:19;8.60;99.90
26262;DHT22;13988;52.446;13.280;2023-03-30T03:41:45;8.60;99.90
26262;DHT22;13988;52.446;13.280;2023-03-30T03:44:11;8.60;99.90
26262;DHT22;13988;52.446;13.280;2023-03-30T03:46:37;8.60;99.90
26262;DHT22;13988;52.446;13.280;2023-03-30T03:49:02;8.60;99.90
26262;DHT22;13988;52.446;13.280;2023-03-30T03:51:28;8.60;99.90
26262;DHT22;13988;52.446;13.280;2023-03-30T03:53:54;8.60;99.90
26262;DHT22;13988;52.446;13.280;2023-03-30T03:56:20;8.60;99.90
26262;DHT22;13988;52.446;13.280;2023-03-30T03:58:45;8.60;99.90
26262;DHT22;13988;52.446;13.280;2023-03-30T04:01:11;8.70;99.90
26262;DHT22;13988;52.446;13.280;2023-03-30T04:03:38;8.50;99.90
26262;DHT22;13988;52.446;13.280;2023-03-30T04:06:04;8.50;99.90
26262;DHT22;13988;52.446;13.280;2023-03-30T04:08:30;8.50;99.90
26262;DHT22;13988;52.446;13.280;2023-03-30T04:11:06;8.50;99.90
26262;DHT22;13988;52.446;13.280;2023-03-30T04:13:33;8.50;99.90
26262;DHT22;13988;52.446;13.280;2023-03-30T04:15:59;8.40;99.90
26262;DHT22;13988;52.446;13.280;2023-03-30T04:18:25;8.40;99.90
26262;DHT22;13988;52.446;13.280;2023-03-30T04:20:56;8.40;99.90
26262;DHT22;13988;52.446;13.280;2023-03-30T04:23:24;8.30;99.90
26262;DHT22;13988;52.446;13.280;2023-03-30T04:25:50;8.30;99.90
26262;DHT22;13988;52.446;13.280;2023-03-30T04:28:16;8.30;99.90
26262;DHT22;13988;52.446;13.280;2023-03-30T04:30:46;8.40;99.90
26262;DHT22;13988;52.446;13.280;2023-03-30T04:33:12;8.40;99.90
26262;DHT22;13988;52.446;13.280;2023-03-30T04:35:39;8.40;99.90
26262;DHT22;13988;52.446;13.280;2023-03-30T04:38:04;8.40;99.90
26262;DHT22;13988;52.446;13.280;2023-03-30T04:40:30;8.40;99.90
26262;DHT22;13988;52.446;13.280;2023-03-30T04:42:57;8.40;99.90
26262;DHT22;13988;52.446;13.280;2023-03-30T04:45:29;8.40;99.90
26262;DHT22;13988;52.446;13.280;2023-03-30T04:47:55;8.30;99.90
26262;DHT22;13988;52.446;13.280;2023-03-30T04:50:21;8.30;99.90
26262;DHT22;13988;52.446;13.280;2023-03-30T04:52:47;8.30;99.90
26262;DHT22;13988;52.446;13.280;2023-03-30T04:55:12;8.20;99.90
26262;DHT22;13988;52.446;13.280;2023-03-30T04:57:38;8.30;99.90
26262;DHT22;13988;52.446;13.280;2023-03-30T05:00:06;8.40;99.90
26262;DHT22;13988;52.446;13.280;2023-03-30T05:02:33;8.40;99.90
26262;DHT22;13988;52.446;13.280;2023-03-30T05:04:58;8.40;99.90
26262;DHT22;13988;52.446;13.280;2023-03-30T05:07:24;8.40;99.90
26262;DHT22;13988;52.446;13.280;2023-03-30T05:09:50;8.50;99.90
26262;DHT22;13988;52.446;13.280;2023-03-30T05:12:17;8.50;99.90
26262;DHT22;13988;52.446;13.280;2023-03-30T05:14:42;8.70;99.90
26262;DHT22;13988;52.446;13.280;2023-03-30T05:17:08;8.50;99.90
26262;DHT22;13988;52.446;13.280;2023-03-30T05:19:34;8.50;99.90
26262;DHT22;13988;52.446;13.280;2023-03-30T05:21:59;8.50;99.90
26262;DHT22;13988;52.446;13.280;2023-03-30T05:24:25;8.50;99.90
26262;DHT22;13988;52.446;13.280;2023-03-30T05:26:51;8.60;99.90
26262;DHT22;13988;52.446;13.280;2023-03-30T05:29:17;8.60;99.90
26262;DHT22;13988;52.446;13.280;2023-03-30T05:31:42;8.60;99.90
26262;DHT22;13988;52.446;13.280;2023-03-30T05:34:08;8.50;99.90
26262;DHT22;13988;52.446;13.280;2023-03-30T05:36:34;8.60;99.90
26262;DHT22;13988;52.446;13.280;2023-03-30T05:39:00;8.60;99.90
26262;DHT22;13988;52.446;13.280;2023-03-30T05:41:29;8.60;99.90
26262;DHT22;13988;52.446;13.280;2023-03-30T05:43:56;8.60;99.90
26262;DHT22;13988;52.446;13.280;2023-03-30T05:46:22;8.50;99.90
26262;DHT22;13988;52.446;13.280;2023-03-30T05:48:48;8.60;99.90
26262;DHT22;13988;52.446;13.280;2023-03-30T05:51:14;8.50;99.90
26262;DHT22;13988;52.446;13.280;2023-03-30T05:53:40;8.50;99.90
26262;DHT22;13988;52.446;13.280;2023-03-30T05:56:06;8.60;99.90
26262;DHT22;13988;52.446;13.280;2023-03-30T05:58:32;8.60;99.90
26262;DHT22;13988;52.446;13.280;2023-03-30T06:00:58;8.60;99.90
26262;DHT22;13988;52.446;13.280;2023-03-30T06:03:24;8.70;99.90
26262;DHT22;13988;52.446;13.280;2023-03-30T06:05:51;8.70;99.90
26262;DHT22;13988;52.446;13.280;2023-03-30T06:08:18;8.80;99.90
26262;DHT22;13988;52.446;13.280;2023-03-30T06:10:51;8.80;99.90
26262;DHT22;13988;52.446;13.280;2023-03-30T06:13:17;8.80;99.90
26262;DHT22;13988;52.446;13.280;2023-03-30T06:15:44;8.80;99.90
26262;DHT22;13988;52.446;13.280;2023-03-30T06:18:10;8.90;99.90
26262;DHT22;13988;52.446;13.280;2023-03-30T06:20:35;8.90;99.90
26262;DHT22;13988;52.446;13.280;2023-03-30T06:23:01;8.90;99.90
26262;DHT22;13988;52.446;13.280;2023-03-30T06:25:27;9.00;99.90
26262;DHT22;13988;52.446;13.280;2023-03-30T06:27:54;9.10;99.90
26262;DHT22;13988;52.446;13.280;2023-03-30T06:30:20;9.20;99.90
26262;DHT22;13988;52.446;13.280;2023-03-30T06:32:46;9.30;99.90
26262;DHT22;13988;52.446;13.280;2023-03-30T06:35:11;9.50;99.90
26262;DHT22;13988;52.446;13.280;2023-03-30T06:37:40;9.60;99.90
26262;DHT22;13988;52.446;13.280;2023-03-30T06:40:07;9.60;99.90
26262;DHT22;13988;52.446;13.280;2023-03-30T06:42:40;9.70;99.90
26262;DHT22;13988;52.446;13.280;2023-03-30T06:45:06;9.70;99.90
26262;DHT22;13988;52.446;13.280;2023-03-30T06:47:33;9.70;99.90
26262;DHT22;13988;52.446;13.280;2023-03-30T06:49:58;9.70;99.90
26262;DHT22;13988;52.446;13.280;2023-03-30T06:52:24;9.80;99.90
26262;DHT22;13988;52.446;13.280;2023-03-30T06:54:49;9.90;99.90
26262;DHT22;13988;52.446;13.280;2023-03-30T06:57:15;10.00;99.90
26262;DHT22;13988;52.446;13.280;2023-03-30T06:59:41;10.00;99.90
26262;DHT22;13988;52.446;13.280;2023-03-30T07:02:10;10.00;99.90
26262;DHT22;13988;52.446;13.280;2023-03-30T07:04:36;9.80;99.90
26262;DHT22;13988;52.446;13.280;2023-03-30T07:07:02;9.90;99.90
26262;DHT22;13988;52.446;13.280;2023-03-30T07:09:27;9.90;99.90
26262;DHT22;13988;52.446;13.280;2023-03-30T07:11:53;10.00;99.90
26262;DHT22;13988;52.446;13.280;2023-03-30T07:14:19;10.30;99.90
26262;DHT22;13988;52.446;13.280;2023-03-30T07:16:47;10.50;99.90
26262;DHT22;13988;52.446;13.280;2023-03-30T07:19:14;10.60;99.90
26262;DHT22;13988;52.446;13.280;2023-03-30T07:21:40;10.70;99.90
26262;DHT22;13988;52.446;13.280;2023-03-30T07:24:06;10.70;99.90
26262;DHT22;13988;52.446;13.280;2023-03-30T07:26:32;10.70;99.90
26262;DHT22;13988;52.446;13.280;2023-03-30T07:28:58;10.90;99.90
26262;DHT22;13988;52.446;13.280;2023-03-30T07:31:24;10.80;99.90
26262;DHT22;13988;52.446;13.280;2023-03-30T07:33:50;11.00;99.90
26262;DHT22;13988;52.446;13.280;2023-03-30T07:36:19;10.90;99.90
26262;DHT22;13988;52.446;13.280;2023-03-30T07:38:45;11.10;99.90
26262;DHT22;13988;52.446;13.280;2023-03-30T07:41:13;11.40;99.90
26262;DHT22;13988;52.446;13.280;2023-03-30T07:43:39;11.70;99.90
26262;DHT22;13988;52.446;13.280;2023-03-30T07:46:06;11.60;99.90
26262;DHT22;13988;52.446;13.280;2023-03-30T07:48:32;11.70;99.90
26262;DHT22;13988;52.446;13.280;2023-03-30T07:51:12;11.90;99.90
26262;DHT22;13988;52.446;13.280;2023-03-30T07:53:38;11.80;99.90
26262;DHT22;13988;52.446;13.280;2023-03-30T07:56:04;11.80;99.90
26262;DHT22;13988;52.446;13.280;2023-03-30T07:58:30;12.00;99.90
26262;DHT22;13988;52.446;13.280;2023-03-30T08:00:56;12.00;99.90
26262;DHT22;13988;52.446;13.280;2023-03-30T08:03:22;12.00;99.90
26262;DHT22;13988;52.446;13.280;2023-03-30T08:05:59;12.00;99.90
26262;DHT22;13988;52.446;13.280;2023-03-30T08:08:29;12.20;99.90
26262;DHT22;13988;52.446;13.280;2023-03-30T08:10:55;12.40;99.90
26262;DHT22;13988;52.446;13.280;2023-03-30T08:13:20;12.40;99.90
26262;DHT22;13988;52.446;13.280;2023-03-30T08:15:46;12.60;99.90
26262;DHT22;13988;52.446;13.280;2023-03-30T08:18:12;12.50;99.90
26262;DHT22;13988;52.446;13.280;2023-03-30T08:20:39;12.70;99.90
26262;DHT22;13988;52.446;13.280;2023-03-30T08:23:07;12.90;99.90
26262;DHT22;13988;52.446;13.280;2023-03-30T08:25:33;13.00;99.90
26262;DHT22;13988;52.446;13.280;2023-03-30T08:27:59;12.90;99.90
26262;DHT22;13988;52.446;13.280;2023-03-30T08:30:25;13.00;99.90
26262;DHT22;13988;52.446;13.280;2023-03-30T08:32:51;13.30;99.90
26262;DHT22;13988;52.446;13.280;2023-03-30T08:35:17;13.30;99.90
26262;DHT22;13988;52.446;13.280;2023-03-30T08:37:43;13.70;99.90
26262;DHT22;13988;52.446;13.280;2023-03-30T08:40:13;13.70;99.90
26262;DHT22;13988;52.446;13.280;2023-03-30T08:45:37;14.10;99.90
26262;DHT22;13988;52.446;13.280;2023-03-30T08:48:06;14.40;99.90
26262;DHT22;13988;52.446;13.280;2023-03-30T08:50:35;14.70;99.90
26262;DHT22;13988;52.446;13.280;2023-03-30T08:53:06;14.80;99.90
26262;DHT22;13988;52.446;13.280;2023-03-30T08:55:52;14.80;99.90
26262;DHT22;13988;52.446;13.280;2023-03-30T08:58:44;14.80;99.90
26262;DHT22;13988;52.446;13.280;2023-03-30T09:01:30;15.00;99.90
26262;DHT22;13988;52.446;13.280;2023-03-30T09:06:39;15.10;99.90
26262;DHT22;13988;52.446;13.280;2023-03-30T09:09:10;15.00;99.90
26262;DHT22;13988;52.446;13.280;2023-03-30T09:11:37;15.10;99.90
26262;DHT22;13988;52.446;13.280;2023-03-30T09:14:06;15.20;99.90
26262;DHT22;13988;52.446;13.280;2023-03-30T09:19:17;15.00;99.90
26262;DHT22;13988;52.446;13.280;2023-03-30T09:21:48;15.00;99.90
26262;DHT22;13988;52.446;13.280;2023-03-30T09:24:18;14.90;99.90
26262;DHT22;13988;52.446;13.280;2023-03-30T09:29:31;15.10;99.90
26262;DHT22;13988;52.446;13.280;2023-03-30T09:34:49;15.20;99.90
26262;DHT22;13988;52.446;13.280;2023-03-30T09:37:17;15.20;99.90
26262;DHT22;13988;52.446;13.280;2023-03-30T09:39:47;15.00;99.90
26262;DHT22;13988;52.446;13.280;2023-03-30T09:42:30;14.90;99.90
26262;DHT22;13988;52.446;13.280;2023-03-30T09:45:13;15.00;99.90
26262;DHT22;13988;52.446;13.280;2023-03-30T09:47:41;15.00;99.90
26262;DHT22;13988;52.446;13.280;2023-03-30T09:50:16;15.10;99.90
26262;DHT22;13988;52.446;13.280;2023-03-30T09:52:55;15.10;99.90
26262;DHT22;13988;52.446;13.280;2023-03-30T09:57:49;15.40;99.90
26262;DHT22;13988;52.446;13.280;2023-03-30T10:00:28;15.30;99.90
26262;DHT22;13988;52.446;13.280;2023-03-30T10:03:00;15.10;99.90
26262;DHT22;13988;52.446;13.280;2023-03-30T10:05:27;15.20;99.90
26262;DHT22;13988;52.446;13.280;2023-03-30T10:07:56;15.20;99.90
26262;DHT22;13988;52.446;13.280;2023-03-30T10:12:54;15.10;99.90
26262;DHT22;13988;52.446;13.280;2023-03-30T10:15:22;15.00;99.90
26262;DHT22;13988;52.446;13.280;2023-03-30T10:17:49;15.00;99.90
26262;DHT22;13988;52.446;13.280;2023-03-30T10:20:32;15.00;99.90
26262;DHT22;13988;52.446;13.280;2023-03-30T10:23:14;15.10;99.90
26262;DHT22;13988;52.446;13.280;2023-03-30T10:25:41;15.00;99.90
26262;DHT22;13988;52.446;13.280;2023-03-30T10:28:26;15.10;99.90
26262;DHT22;13988;52.446;13.280;2023-03-30T10:31:18;15.10;99.90
26262;DHT22;13988;52.446;13.280;2023-03-30T10:33:44;15.10;99.90
26262;DHT22;13988;52.446;13.280;2023-03-30T10:36:13;15.20;99.90
26262;DHT22;13988;52.446;13.280;2023-03-30T10:38:40;15.30;99.90
26262;DHT22;13988;52.446;13.280;2023-03-30T10:41:30;15.50;99.90
26262;DHT22;13988;52.446;13.280;2023-03-30T10:43:55;15.60;99.90
26262;DHT22;13988;52.446;13.280;2023-03-30T10:46:23;15.90;99.90
26262;DHT22;13988;52.446;13.280;2023-03-30T10:49:24;16.00;99.90
26262;DHT22;13988;52.446;13.280;2023-03-30T10:52:54;16.20;99.90
26262;DHT22;13988;52.446;13.280;2023-03-30T10:55:20;16.50;99.90
26262;DHT22;13988;52.446;13.280;2023-03-30T10:58:13;16.50;99.90
26262;DHT22;13988;52.446;13.280;2023-03-30T11:03:16;16.20;99.90
26262;DHT22;13988;52.446;13.280;2023-03-30T11:05:51;16.00;99.90
26262;DHT22;13988;52.446;13.280;2023-03-30T11:08:25;15.90;99.90
26262;DHT22;13988;52.446;13.280;2023-03-30T11:10:56;15.90;99.90
26262;DHT22;13988;52.446;13.280;2023-03-30T11:13:42;16.00;99.90
26262;DHT22;13988;52.446;13.280;2023-03-30T11:22:27;16.80;99.90
26262;DHT22;13988;52.446;13.280;2023-03-30T11:24:27;17.10;99.90
26262;DHT22;13988;52.446;13.280;2023-03-30T11:29:40;16.60;99.90
26262;DHT22;13988;52.446;13.280;2023-03-30T11:34:50;16.90;99.90
26262;DHT22;13988;52.446;13.280;2023-03-30T11:40:27;17.00;99.90
26262;DHT22;13988;52.446;13.280;2023-03-30T11:42:54;16.70;99.90
26262;DHT22;13988;52.446;13.280;2023-03-30T11:56:06;18.40;99.90
26262;DHT22;13988;52.446;13.280;2023-03-30T11:58:42;18.10;99.90
26262;DHT22;13988;52.446;13.280;2023-03-30T12:01:27;19.10;99.90
26262;DHT22;13988;52.446;13.280;2023-03-30T12:04:03;20.40;99.90
26262;DHT22;13988;52.446;13.280;2023-03-30T12:06:31;22.50;99.90
26262;DHT22;13988;52.446;13.280;2023-03-30T12:11:37;21.70;99.90
26262;DHT22;13988;52.446;13.280;2023-03-30T12:14:31;22.30;99.90
26262;DHT22;13988;52.446;13.280;2023-03-30T12:17:22;22.20;99.90
26262;DHT22;13988;52.446;13.280;2023-03-30T12:22:48;20.60;99.90
26262;DHT22;13988;52.446;13.280;2023-03-30T12:27:58;21.20;99.90
26262;DHT22;13988;52.446;13.280;2023-03-30T12:30:29;21.60;99.90
26262;DHT22;13988;52.446;13.280;2023-03-30T12:33:18;20.60;99.90
26262;DHT22;13988;52.446;13.280;2023-03-30T12:35:58;20.30;99.90
26262;DHT22;13988;52.446;13.280;2023-03-30T12:38:27;19.30;99.90
26262;DHT22;13988;52.446;13.280;2023-03-30T12:41:07;19.20;99.90
26262;DHT22;13988;52.446;13.280;2023-03-30T12:55:02;20.30;99.90
26262;DHT22;13988;52.446;13.280;2023-03-30T12:57:37;20.40;99.90
26262;DHT22;13988;52.446;13.280;2023-03-30T13:00:07;19.30;99.90
26262;DHT22;13988;52.446;13.280;2023-03-30T13:05:25;19.30;99.90
26262;DHT22;13988;52.446;13.280;2023-03-30T13:07:53;18.70;99.90
26262;DHT22;13988;52.446;13.280;2023-03-30T13:10:40;19.50;99.90
26262;DHT22;13988;52.446;13.280;2023-03-30T13:13:23;18.80;99.90
26262;DHT22;13988;52.446;13.280;2023-03-30T13:16:07;18.90;99.90
26262;DHT22;13988;52.446;13.280;2023-03-30T13:18:39;19.30;99.90
26262;DHT22;13988;52.446;13.280;2023-03-30T13:21:21;19.20;99.90
26262;DHT22;13988;52.446;13.280;2023-03-30T13:26:53;18.30;99.90
26262;DHT22;13988;52.446;13.280;2023-03-30T13:29:20;18.20;99.90
26262;DHT22;13988;52.446;13.280;2023-03-30T13:32:08;18.40;99.90
26262;DHT22;13988;52.446;13.280;2023-03-30T13:40:01;17.90;99.90
26262;DHT22;13988;52.446;13.280;2023-03-30T13:45:15;17.60;99.90
26262;DHT22;13988;52.446;13.280;2023-03-30T13:50:28;17.30;99.90
26262;DHT22;13988;52.446;13.280;2023-03-30T13:52:58;16.90;99.90
26262;DHT22;13988;52.446;13.280;2023-03-30T13:55:32;15.70;99.90
26262;DHT22;13988;52.446;13.280;2023-03-30T13:58:24;13.40;99.90
26262;DHT22;13988;52.446;13.280;2023-03-30T14:01:08;12.40;99.90
26262;DHT22;13988;52.446;13.280;2023-03-30T14:03:39;12.00;99.90
26262;DHT22;13988;52.446;13.280;2023-03-30T14:08:38;12.00;99.90
26262;DHT22;13988;52.446;13.280;2023-03-30T14:13:38;11.90;99.90
26262;DHT22;13988;52.446;13.280;2023-03-30T14:16:05;12.10;99.90
26262;DHT22;13988;52.446;13.280;2023-03-30T14:18:31;12.10;99.90
26262;DHT22;13988;52.446;13.280;2023-03-30T14:20:59;12.10;99.90
26262;DHT22;13988;52.446;13.280;2023-03-30T14:23:37;12.20;99.90
26262;DHT22;13988;52.446;13.280;2023-03-30T14:26:15;12.10;99.90
26262;DHT22;13988;52.446;13.280;2023-03-30T14:28:42;12.10;99.90
26262;DHT22;13988;52.446;13.280;2023-03-30T14:31:18;11.80;99.90
26262;DHT22;13988;52.446;13.280;2023-03-30T14:33:44;11.90;99.90
26262;DHT22;13988;52.446;13.280;2023-03-30T14:36:15;12.10;99.90
26262;DHT22;13988;52.446;13.280;2023-03-30T14:38:50;11.90;99.90
26262;DHT22;13988;52.446;13.280;2023-03-30T14:41:23;12.00;99.90
26262;DHT22;13988;52.446;13.280;2023-03-30T14:44:04;11.90;99.90
26262;DHT22;13988;52.446;13.280;2023-03-30T14:46:51;12.20;99.90
26262;DHT22;13988;52.446;13.280;2023-03-30T14:49:23;12.40;99.90
26262;DHT22;13988;52.446;13.280;2023-03-30T14:51:52;12.30;99.90
26262;DHT22;13988;52.446;13.280;2023-03-30T14:54:20;12.40;99.90
26262;DHT22;13988;52.446;13.280;2023-03-30T14:56:57;12.40;99.90
26262;DHT22;13988;52.446;13.280;2023-03-30T14:59:25;12.30;99.90
26262;DHT22;13988;52.446;13.280;2023-03-30T15:01:52;12.30;99.90
26262;DHT22;13988;52.446;13.280;2023-03-30T15:04:20;12.30;99.90
26262;DHT22;13988;52.446;13.280;2023-03-30T15:06:47;12.40;99.90
26262;DHT22;13988;52.446;13.280;2023-03-30T15:09:18;12.20;99.90
26262;DHT22;13988;52.446;13.280;2023-03-30T15:11:47;12.00;99.90
26262;DHT22;13988;52.446;13.280;2023-03-30T15:14:16;11.90;99.90
26262;DHT22;13988;52.446;13.280;2023-03-30T15:16:44;12.00;99.90
26262;DHT22;13988;52.446;13.280;2023-03-30T15:19:17;12.00;99.90
26262;DHT22;13988;52.446;13.280;2023-03-30T15:21:45;11.90;99.90
26262;DHT22;13988;52.446;13.280;2023-03-30T15:24:15;11.80;99.90
26262;DHT22;13988;52.446;13.280;2023-03-30T15:26:44;11.70;99.90
26262;DHT22;13988;52.446;13.280;2023-03-30T15:29:14;11.70;99.90
26262;DHT22;13988;52.446;13.280;2023-03-30T15:31:42;11.60;99.90
26262;DHT22;13988;52.446;13.280;2023-03-30T15:34:16;11.70;99.90
26262;DHT22;13988;52.446;13.280;2023-03-30T15:36:42;11.80;99.90
26262;DHT22;13988;52.446;13.280;2023-03-30T15:39:25;11.90;99.90
26262;DHT22;13988;52.446;13.280;2023-03-30T15:42:00;11.80;99.90
26262;DHT22;13988;52.446;13.280;2023-03-30T15:44:31;11.80;99.90
26262;DHT22;13988;52.446;13.280;2023-03-30T15:46:59;11.80;99.90
26262;DHT22;13988;52.446;13.280;2023-03-30T15:49:45;11.80;99.90
26262;DHT22;13988;52.446;13.280;2023-03-30T15:52:21;11.80;99.90
26262;DHT22;13988;52.446;13.280;2023-03-30T15:54:54;11.80;99.90
26262;DHT22;13988;52.446;13.280;2023-03-30T15:57:41;11.70;99.90
26262;DHT22;13988;52.446;13.280;2023-03-30T16:00:14;11.70;99.90
26262;DHT22;13988;52.446;13.280;2023-03-30T16:02:52;11.80;99.90
26262;DHT22;13988;52.446;13.280;2023-03-30T16:05:28;11.80;99.90
26262;DHT22;13988;52.446;13.280;2023-03-30T16:07:54;11.80;99.90
26262;DHT22;13988;52.446;13.280;2023-03-30T16:10:23;11.70;99.90
26262;DHT22;13988;52.446;13.280;2023-03-30T16:12:51;11.80;99.90
26262;DHT22;13988;52.446;13.280;2023-03-30T16:15:22;11.90;99.90
26262;DHT22;13988;52.446;13.280;2023-03-30T16:17:49;12.10;99.90
26262;DHT22;13988;52.446;13.280;2023-03-30T16:20:30;12.30;99.90
26262;DHT22;13988;52.446;13.280;2023-03-30T16:22:56;12.30;99.90
26262;DHT22;13988;52.446;13.280;2023-03-30T16:25:24;12.40;99.90
26262;DHT22;13988;52.446;13.280;2023-03-30T16:27:51;12.40;99.90
26262;DHT22;13988;52.446;13.280;2023-03-30T16:30:22;12.30;99.90
26262;DHT22;13988;52.446;13.280;2023-03-30T16:32:50;12.20;99.90
26262;DHT22;13988;52.446;13.280;2023-03-30T16:35:16;12.10;99.90
26262;DHT22;13988;52.446;13.280;2023-03-30T16:37:41;12.10;99.90
26262;DHT22;13988;52.446;13.280;2023-03-30T16:40:36;12.00;99.90
26262;DHT22;13988;52.446;13.280;2023-03-30T16:43:03;11.90;99.90
26262;DHT22;13988;52.446;13.280;2023-03-30T16:45:30;12.00;99.90
26262;DHT22;13988;52.446;13.280;2023-03-30T16:47:56;11.90;99.90
26262;DHT22;13988;52.446;13.280;2023-03-30T16:50:37;11.80;99.90
26262;DHT22;13988;52.446;13.280;2023-03-30T16:53:05;11.90;99.90
26262;DHT22;13988;52.446;13.280;2023-03-30T16:55:31;12.00;99.90
26262;DHT22;13988;52.446;13.280;2023-03-30T16:57:57;12.10;99.90
26262;DHT22;13988;52.446;13.280;2023-03-30T17:00:28;12.10;99.90
26262;DHT22;13988;52.446;13.280;2023-03-30T17:02:54;12.10;99.90
26262;DHT22;13988;52.446;13.280;2023-03-30T17:05:20;12.00;99.90
26262;DHT22;13988;52.446;13.280;2023-03-30T17:07:46;12.00;99.90
26262;DHT22;13988;52.446;13.280;2023-03-30T17:10:17;11.90;99.90
26262;DHT22;13988;52.446;13.280;2023-03-30T17:12:44;11.90;99.90
26262;DHT22;13988;52.446;13.280;2023-03-30T17:15:09;11.80;99.90
26262;DHT22;13988;52.446;13.280;2023-03-30T17:17:35;11.80;99.90
26262;DHT22;13988;52.446;13.280;2023-03-30T17:20:35;11.70;99.90
26262;DHT22;13988;52.446;13.280;2023-03-30T17:23:02;11.60;99.90
26262;DHT22;13988;52.446;13.280;2023-03-30T17:25:28;11.50;99.90
26262;DHT22;13988;52.446;13.280;2023-03-30T17:27:55;11.50;99.90
26262;DHT22;13988;52.446;13.280;2023-03-30T17:30:28;11.50;99.90
26262;DHT22;13988;52.446;13.280;2023-03-30T17:32:54;11.40;99.90
26262;DHT22;13988;52.446;13.280;2023-03-30T17:35:20;11.40;99.90
26262;DHT22;13988;52.446;13.280;2023-03-30T17:37:47;11.30;99.90
26262;DHT22;13988;52.446;13.280;2023-03-30T17:40:18;11.30;99.90
26262;DHT22;13988;52.446;13.280;2023-03-30T17:42:45;11.20;99.90
26262;DHT22;13988;52.446;13.280;2023-03-30T17:45:12;11.20;99.90
26262;DHT22;13988;52.446;13.280;2023-03-30T17:47:38;11.20;99.90